sensor_id;sensor_type;location;lat;lon;timestamp;P1;durP1;ratioP1;P2;durP2;ratioP2
31368;SDS011;18004;48.416;10.066;2024-02-21T00:02:20;9.85;;;2.72;;
31368;SDS011;18004;48.416;10.066;2024-02-21T00:04:46;4.50;;;2.47;;
31368;SDS011;18004;48.416;10.066;2024-02-21T00:07:12;14.13;;;3.30;;
31368;SDS011;18004;48.416;10.066;2024-02-21T00:09:37;6.00;;;2.63;;
31368;SDS011;18004;48.416;10.066;2024-02-21T00:12:03;5.55;;;2.90;;
31368;SDS011;18004;48.416;10.066;2024-02-21T00:14:30;15.63;;;3.42;;
31368;SDS011;18004;48.416;10.066;2024-02-21T00:16:56;7.60;;;3.55;;
31368;SDS011;18004;48.416;10.066;2024-02-21T00:19:22;6.85;;;3.08;;
31368;SDS011;18004;48.416;10.066;2024-02-21T00:21:47;6.65;;;2.75;;
31368;SDS011;18004;48.416;10.066;2024-02-21T00:24:13;12.85;;;3.10;;
31368;SDS011;18004;48.416;10.066;2024-02-21T00:26:39;4.90;;;2.55;;
31368;SDS011;18004;48.416;10.066;2024-02-21T00:29:04;8.25;;;2.60;;
31368;SDS011;18004;48.416;10.066;2024-02-21T00:31:30;3.35;;;2.03;;
31368;SDS011;18004;48.416;10.066;2024-02-21T00:33:56;3.63;;;1.95;;
31368;SDS011;18004;48.416;10.066;2024-02-21T00:36:23;6.88;;;2.20;;
31368;SDS011;18004;48.416;10.066;2024-02-21T00:38:49;5.22;;;2.33;;
31368;SDS011;18004;48.416;10.066;2024-02-21T00:41:14;3.13;;;2.20;;
31368;SDS011;18004;48.416;10.066;2024-02-21T00:43:41;8.77;;;3.10;;
31368;SDS011;18004;48.416;10.066;2024-02-21T00:46:07;10.70;;;3.58;;
31368;SDS011;18004;48.416;10.066;2024-02-21T00:48:33;6.18;;;3.72;;
31368;SDS011;18004;48.416;10.066;2024-02-21T00:50:59;15.68;;;4.47;;
31368;SDS011;18004;48.416;10.066;2024-02-21T00:53:25;11.68;;;4.03;;
31368;SDS011;18004;48.416;10.066;2024-02-21T00:55:50;8.48;;;4.10;;
31368;SDS011;18004;48.416;10.066;2024-02-21T00:58:16;7.97;;;3.08;;
31368;SDS011;18004;48.416;10.066;2024-02-21T01:00:42;8.23;;;2.88;;
31368;SDS011;18004;48.416;10.066;2024-02-21T01:03:08;5.82;;;2.75;;
31368;SDS011;18004;48.416;10.066;2024-02-21T01:05:33;9.20;;;4.78;;
31368;SDS011;18004;48.416;10.066;2024-02-21T01:07:59;15.07;;;6.30;;
31368;SDS011;18004;48.416;10.066;2024-02-21T01:10:25;15.25;;;6.43;;
31368;SDS011;18004;48.416;10.066;2024-02-21T01:12:51;9.15;;;4.28;;
31368;SDS011;18004;48.416;10.066;2024-02-21T01:15:16;10.15;;;3.20;;
31368;SDS011;18004;48.416;10.066;2024-02-21T01:17:42;4.45;;;2.70;;
31368;SDS011;18004;48.416;10.066;2024-02-21T01:20:08;3.45;;;2.10;;
31368;SDS011;18004;48.416;10.066;2024-02-21T01:22:34;10.90;;;2.33;;
31368;SDS011;18004;48.416;10.066;2024-02-21T01:25:00;9.90;;;2.80;;
31368;SDS011;18004;48.416;10.066;2024-02-21T01:27:25;9.20;;;2.72;;
31368;SDS011;18004;48.416;10.066;2024-02-21T01:29:51;6.47;;;2.40;;
31368;SDS011;18004;48.416;10.066;2024-02-21T01:32:17;7.28;;;2.88;;
31368;SDS011;18004;48.416;10.066;2024-02-21T01:34:43;8.02;;;2.58;;
31368;SDS011;18004;48.416;10.066;2024-02-21T01:37:08;6.47;;;2.15;;
31368;SDS011;18004;48.416;10.066;2024-02-21T01:39:34;4.38;;;2.45;;
31368;SDS011;18004;48.416;10.066;2024-02-21T01:42:00;5.88;;;2.90;;
31368;SDS011;18004;48.416;10.066;2024-02-21T01:44:26;5.00;;;3.15;;
31368;SDS011;18004;48.416;10.066;2024-02-21T01:46:52;9.40;;;3.47;;
31368;SDS011;18004;48.416;10.066;2024-02-21T01:49:19;5.32;;;3.10;;
31368;SDS011;18004;48.416;10.066;2024-02-21T01:51:45;5.50;;;2.47;;
31368;SDS011;18004;48.416;10.066;2024-02-21T01:54:13;9.20;;;2.40;;
31368;SDS011;18004;48.416;10.066;2024-02-21T01:56:40;6.82;;;2.72;;
31368;SDS011;18004;48.416;10.066;2024-02-21T01:59:06;9.77;;;2.78;;
31368;SDS011;18004;48.416;10.066;2024-02-21T02:01:33;7.72;;;2.58;;
31368;SDS011;18004;48.416;10.066;2024-02-21T02:03:59;9.75;;;2.50;;
31368;SDS011;18004;48.416;10.066;2024-02-21T02:06:25;8.07;;;3.25;;
31368;SDS011;18004;48.416;10.066;2024-02-21T02:08:50;10.75;;;3.50;;
31368;SDS011;18004;48.416;10.066;2024-02-21T02:11:17;10.88;;;2.72;;
31368;SDS011;18004;48.416;10.066;2024-02-21T02:13:43;8.40;;;3.40;;
31368;SDS011;18004;48.416;10.066;2024-02-21T02:16:09;8.80;;;2.65;;
31368;SDS011;18004;48.416;10.066;2024-02-21T02:18:35;10.20;;;3.05;;
31368;SDS011;18004;48.416;10.066;2024-02-21T02:21:00;9.30;;;2.88;;
31368;SDS011;18004;48.416;10.066;2024-02-21T02:23:29;4.85;;;2.60;;
31368;SDS011;18004;48.416;10.066;2024-02-21T02:25:58;8.25;;;2.70;;
31368;SDS011;18004;48.416;10.066;2024-02-21T02:28:24;4.68;;;2.35;;
31368;SDS011;18004;48.416;10.066;2024-02-21T02:30:50;8.27;;;2.70;;
31368;SDS011;18004;48.416;10.066;2024-02-21T02:33:16;11.52;;;3.22;;
31368;SDS011;18004;48.416;10.066;2024-02-21T02:35:45;3.80;;;2.17;;
31368;SDS011;18004;48.416;10.066;2024-02-21T02:38:11;7.18;;;2.60;;
31368;SDS011;18004;48.416;10.066;2024-02-21T02:40:38;4.00;;;2.35;;
31368;SDS011;18004;48.416;10.066;2024-02-21T02:43:05;11.38;;;2.30;;
31368;SDS011;18004;48.416;10.066;2024-02-21T02:45:31;6.45;;;2.13;;
31368;SDS011;18004;48.416;10.066;2024-02-21T02:47:58;3.53;;;2.38;;
31368;SDS011;18004;48.416;10.066;2024-02-21T02:50:24;7.75;;;2.38;;
31368;SDS011;18004;48.416;10.066;2024-02-21T02:52:51;7.00;;;2.80;;
31368;SDS011;18004;48.416;10.066;2024-02-21T02:55:17;10.27;;;2.22;;
31368;SDS011;18004;48.416;10.066;2024-02-21T02:57:43;5.05;;;2.00;;
31368;SDS011;18004;48.416;10.066;2024-02-21T03:00:12;12.88;;;2.70;;
31368;SDS011;18004;48.416;10.066;2024-02-21T03:02:42;15.13;;;2.90;;
31368;SDS011;18004;48.416;10.066;2024-02-21T03:05:13;10.52;;;3.17;;
31368;SDS011;18004;48.416;10.066;2024-02-21T03:07:40;5.03;;;2.03;;
31368;SDS011;18004;48.416;10.066;2024-02-21T03:10:06;6.80;;;2.88;;
31368;SDS011;18004;48.416;10.066;2024-02-21T03:12:32;3.78;;;2.17;;
31368;SDS011;18004;48.416;10.066;2024-02-21T03:14:58;6.30;;;2.40;;
31368;SDS011;18004;48.416;10.066;2024-02-21T03:17:24;9.13;;;2.50;;
31368;SDS011;18004;48.416;10.066;2024-02-21T03:19:52;3.47;;;1.98;;
31368;SDS011;18004;48.416;10.066;2024-02-21T03:22:18;7.80;;;2.03;;
31368;SDS011;18004;48.416;10.066;2024-02-21T03:24:44;4.43;;;1.83;;
31368;SDS011;18004;48.416;10.066;2024-02-21T03:27:10;3.13;;;1.92;;
31368;SDS011;18004;48.416;10.066;2024-02-21T03:29:35;6.45;;;2.45;;
31368;SDS011;18004;48.416;10.066;2024-02-21T03:32:01;26.60;;;2.90;;
31368;SDS011;18004;48.416;10.066;2024-02-21T03:34:27;8.27;;;2.60;;
31368;SDS011;18004;48.416;10.066;2024-02-21T03:36:53;5.97;;;2.55;;
31368;SDS011;18004;48.416;10.066;2024-02-21T03:39:18;5.40;;;2.60;;
31368;SDS011;18004;48.416;10.066;2024-02-21T03:41:45;8.57;;;1.67;;
31368;SDS011;18004;48.416;10.066;2024-02-21T03:44:11;5.30;;;1.92;;
31368;SDS011;18004;48.416;10.066;2024-02-21T03:46:36;7.72;;;1.70;;
31368;SDS011;18004;48.416;10.066;2024-02-21T03:49:02;5.18;;;2.00;;
31368;SDS011;18004;48.416;10.066;2024-02-21T03:51:28;5.63;;;2.28;;
31368;SDS011;18004;48.416;10.066;2024-02-21T03:53:53;5.05;;;2.45;;
31368;SDS011;18004;48.416;10.066;2024-02-21T03:56:19;2.67;;;1.83;;
31368;SDS011;18004;48.416;10.066;2024-02-21T03:58:45;3.90;;;1.77;;
31368;SDS011;18004;48.416;10.066;2024-02-21T04:01:11;3.67;;;1.80;;
31368;SDS011;18004;48.416;10.066;2024-02-21T04:03:37;11.05;;;2.15;;
31368;SDS011;18004;48.416;10.066;2024-02-21T04:06:03;2.63;;;1.80;;
31368;SDS011;18004;48.416;10.066;2024-02-21T04:08:29;6.85;;;2.08;;
31368;SDS011;18004;48.416;10.066;2024-02-21T04:10:55;6.40;;;2.33;;
31368;SDS011;18004;48.416;10.066;2024-02-21T04:13:20;7.60;;;3.30;;
31368;SDS011;18004;48.416;10.066;2024-02-21T04:15:48;8.32;;;3.45;;
31368;SDS011;18004;48.416;10.066;2024-02-21T04:18:13;12.98;;;3.92;;
31368;SDS011;18004;48.416;10.066;2024-02-21T04:20:40;13.40;;;3.83;;
31368;SDS011;18004;48.416;10.066;2024-02-21T04:23:06;11.52;;;6.53;;
31368;SDS011;18004;48.416;10.066;2024-02-21T04:25:31;13.90;;;5.53;;
31368;SDS011;18004;48.416;10.066;2024-02-21T04:27:57;9.05;;;5.13;;
31368;SDS011;18004;48.416;10.066;2024-02-21T04:30:23;6.40;;;4.05;;
31368;SDS011;18004;48.416;10.066;2024-02-21T04:32:48;5.10;;;2.72;;
31368;SDS011;18004;48.416;10.066;2024-02-21T04:35:14;5.63;;;2.33;;
31368;SDS011;18004;48.416;10.066;2024-02-21T04:37:40;3.85;;;2.20;;
31368;SDS011;18004;48.416;10.066;2024-02-21T04:40:06;10.23;;;1.92;;
31368;SDS011;18004;48.416;10.066;2024-02-21T04:42:32;4.15;;;2.08;;
31368;SDS011;18004;48.416;10.066;2024-02-21T04:44:59;6.45;;;2.17;;
31368;SDS011;18004;48.416;10.066;2024-02-21T04:47:24;5.18;;;2.00;;
31368;SDS011;18004;48.416;10.066;2024-02-21T04:49:51;4.95;;;2.17;;
31368;SDS011;18004;48.416;10.066;2024-02-21T04:52:17;8.95;;;2.33;;
31368;SDS011;18004;48.416;10.066;2024-02-21T04:54:43;4.38;;;2.40;;
31368;SDS011;18004;48.416;10.066;2024-02-21T04:57:08;8.20;;;2.20;;
31368;SDS011;18004;48.416;10.066;2024-02-21T04:59:35;9.45;;;2.60;;
31368;SDS011;18004;48.416;10.066;2024-02-21T05:02:01;8.52;;;2.20;;
31368;SDS011;18004;48.416;10.066;2024-02-21T05:04:28;10.20;;;2.55;;
31368;SDS011;18004;48.416;10.066;2024-02-21T05:06:54;4.07;;;1.90;;
31368;SDS011;18004;48.416;10.066;2024-02-21T05:09:19;2.97;;;2.10;;
31368;SDS011;18004;48.416;10.066;2024-02-21T05:11:46;6.18;;;2.65;;
31368;SDS011;18004;48.416;10.066;2024-02-21T05:14:12;5.53;;;2.17;;
31368;SDS011;18004;48.416;10.066;2024-02-21T05:16:38;7.18;;;2.38;;
31368;SDS011;18004;48.416;10.066;2024-02-21T05:19:05;7.15;;;2.75;;
31368;SDS011;18004;48.416;10.066;2024-02-21T05:21:30;4.55;;;1.90;;
31368;SDS011;18004;48.416;10.066;2024-02-21T05:23:56;7.03;;;2.53;;
31368;SDS011;18004;48.416;10.066;2024-02-21T05:26:22;11.10;;;2.47;;
31368;SDS011;18004;48.416;10.066;2024-02-21T05:28:49;4.97;;;1.73;;
31368;SDS011;18004;48.416;10.066;2024-02-21T05:31:15;7.45;;;2.30;;
31368;SDS011;18004;48.416;10.066;2024-02-21T05:33:43;5.10;;;2.42;;
31368;SDS011;18004;48.416;10.066;2024-02-21T05:36:10;7.68;;;2.20;;
31368;SDS011;18004;48.416;10.066;2024-02-21T05:38:36;12.45;;;2.47;;
31368;SDS011;18004;48.416;10.066;2024-02-21T05:41:02;5.65;;;2.70;;
31368;SDS011;18004;48.416;10.066;2024-02-21T05:43:28;9.52;;;2.95;;
31368;SDS011;18004;48.416;10.066;2024-02-21T05:45:54;12.63;;;2.60;;
31368;SDS011;18004;48.416;10.066;2024-02-21T05:48:20;10.75;;;2.95;;
31368;SDS011;18004;48.416;10.066;2024-02-21T05:50:47;5.50;;;2.28;;
31368;SDS011;18004;48.416;10.066;2024-02-21T05:53:13;4.85;;;2.53;;
31368;SDS011;18004;48.416;10.066;2024-02-21T05:55:38;4.95;;;2.25;;
31368;SDS011;18004;48.416;10.066;2024-02-21T05:58:04;9.65;;;2.55;;
31368;SDS011;18004;48.416;10.066;2024-02-21T06:00:31;7.25;;;2.78;;
31368;SDS011;18004;48.416;10.066;2024-02-21T06:02:57;8.68;;;2.05;;
31368;SDS011;18004;48.416;10.066;2024-02-21T06:05:23;10.15;;;3.22;;
31368;SDS011;18004;48.416;10.066;2024-02-21T06:07:49;13.20;;;2.85;;
31368;SDS011;18004;48.416;10.066;2024-02-21T06:10:15;6.95;;;3.28;;
31368;SDS011;18004;48.416;10.066;2024-02-21T06:12:41;4.72;;;2.50;;
31368;SDS011;18004;48.416;10.066;2024-02-21T06:15:07;5.82;;;2.95;;
31368;SDS011;18004;48.416;10.066;2024-02-21T06:17:34;6.90;;;3.67;;
31368;SDS011;18004;48.416;10.066;2024-02-21T06:19:59;11.52;;;3.83;;
31368;SDS011;18004;48.416;10.066;2024-02-21T06:22:25;10.48;;;4.50;;
31368;SDS011;18004;48.416;10.066;2024-02-21T06:24:51;12.20;;;5.13;;
31368;SDS011;18004;48.416;10.066;2024-02-21T06:27:19;16.63;;;5.03;;
31368;SDS011;18004;48.416;10.066;2024-02-21T06:29:45;9.20;;;4.65;;
31368;SDS011;18004;48.416;10.066;2024-02-21T06:32:10;20.48;;;5.32;;
31368;SDS011;18004;48.416;10.066;2024-02-21T06:34:36;13.52;;;6.00;;
31368;SDS011;18004;48.416;10.066;2024-02-21T06:37:02;7.60;;;4.82;;
31368;SDS011;18004;48.416;10.066;2024-02-21T06:39:28;15.77;;;7.70;;
31368;SDS011;18004;48.416;10.066;2024-02-21T06:41:54;14.80;;;8.35;;
31368;SDS011;18004;48.416;10.066;2024-02-21T06:44:21;10.43;;;6.60;;
31368;SDS011;18004;48.416;10.066;2024-02-21T06:46:47;9.90;;;4.60;;
31368;SDS011;18004;48.416;10.066;2024-02-21T06:49:13;11.10;;;6.80;;
31368;SDS011;18004;48.416;10.066;2024-02-21T06:51:44;16.80;;;6.32;;
31368;SDS011;18004;48.416;10.066;2024-02-21T06:54:10;13.95;;;7.50;;
31368;SDS011;18004;48.416;10.066;2024-02-21T06:56:36;13.55;;;7.70;;
31368;SDS011;18004;48.416;10.066;2024-02-21T06:59:02;13.57;;;6.47;;
31368;SDS011;18004;48.416;10.066;2024-02-21T07:01:29;17.60;;;4.70;;
31368;SDS011;18004;48.416;10.066;2024-02-21T07:03:55;9.15;;;5.97;;
31368;SDS011;18004;48.416;10.066;2024-02-21T07:06:21;17.60;;;6.43;;
31368;SDS011;18004;48.416;10.066;2024-02-21T07:08:47;11.35;;;5.78;;
31368;SDS011;18004;48.416;10.066;2024-02-21T07:11:13;11.07;;;4.72;;
31368;SDS011;18004;48.416;10.066;2024-02-21T07:13:39;13.57;;;4.28;;
31368;SDS011;18004;48.416;10.066;2024-02-21T07:16:05;12.00;;;4.40;;
31368;SDS011;18004;48.416;10.066;2024-02-21T07:18:31;6.72;;;4.38;;
31368;SDS011;18004;48.416;10.066;2024-02-21T07:20:57;6.45;;;4.65;;
31368;SDS011;18004;48.416;10.066;2024-02-21T07:23:23;14.05;;;5.18;;
31368;SDS011;18004;48.416;10.066;2024-02-21T07:25:49;9.20;;;4.90;;
31368;SDS011;18004;48.416;10.066;2024-02-21T07:28:15;9.48;;;5.57;;
31368;SDS011;18004;48.416;10.066;2024-02-21T07:30:41;13.80;;;5.40;;
31368;SDS011;18004;48.416;10.066;2024-02-21T07:33:08;13.55;;;5.65;;
31368;SDS011;18004;48.416;10.066;2024-02-21T07:35:33;7.28;;;4.03;;
31368;SDS011;18004;48.416;10.066;2024-02-21T07:37:59;6.90;;;3.75;;
31368;SDS011;18004;48.416;10.066;2024-02-21T07:40:25;10.80;;;3.70;;
31368;SDS011;18004;48.416;10.066;2024-02-21T07:42:51;9.15;;;4.75;;
31368;SDS011;18004;48.416;10.066;2024-02-21T07:45:16;13.60;;;6.28;;
31368;SDS011;18004;48.416;10.066;2024-02-21T07:47:43;14.15;;;6.88;;
31368;SDS011;18004;48.416;10.066;2024-02-21T07:50:09;12.68;;;6.88;;
31368;SDS011;18004;48.416;10.066;2024-02-21T07:52:35;8.90;;;4.80;;
31368;SDS011;18004;48.416;10.066;2024-02-21T07:55:01;10.07;;;4.10;;
31368;SDS011;18004;48.416;10.066;2024-02-21T07:57:26;6.57;;;1.98;;
31368;SDS011;18004;48.416;10.066;2024-02-21T07:59:53;4.75;;;2.42;;
31368;SDS011;18004;48.416;10.066;2024-02-21T08:02:19;12.23;;;5.22;;
31368;SDS011;18004;48.416;10.066;2024-02-21T08:04:44;15.25;;;4.82;;
31368;SDS011;18004;48.416;10.066;2024-02-21T08:07:10;17.85;;;8.77;;
31368;SDS011;18004;48.416;10.066;2024-02-21T08:09:36;21.80;;;9.80;;
31368;SDS011;18004;48.416;10.066;2024-02-21T08:12:04;16.55;;;6.15;;
31368;SDS011;18004;48.416;10.066;2024-02-21T08:14:30;7.93;;;3.00;;
31368;SDS011;18004;48.416;10.066;2024-02-21T08:16:56;8.52;;;2.97;;
31368;SDS011;18004;48.416;10.066;2024-02-21T08:19:22;3.05;;;2.22;;
31368;SDS011;18004;48.416;10.066;2024-02-21T08:21:48;7.95;;;2.58;;
31368;SDS011;18004;48.416;10.066;2024-02-21T08:24:14;10.43;;;4.47;;
31368;SDS011;18004;48.416;10.066;2024-02-21T08:26:43;9.32;;;4.05;;
31368;SDS011;18004;48.416;10.066;2024-02-21T08:29:12;5.47;;;2.45;;
31368;SDS011;18004;48.416;10.066;2024-02-21T08:31:38;2.85;;;1.80;;
31368;SDS011;18004;48.416;10.066;2024-02-21T08:34:04;4.55;;;1.90;;
31368;SDS011;18004;48.416;10.066;2024-02-21T08:36:30;9.05;;;1.98;;
31368;SDS011;18004;48.416;10.066;2024-02-21T08:39:00;9.32;;;3.17;;
31368;SDS011;18004;48.416;10.066;2024-02-21T08:41:30;6.97;;;2.60;;
31368;SDS011;18004;48.416;10.066;2024-02-21T08:43:56;3.45;;;2.00;;
31368;SDS011;18004;48.416;10.066;2024-02-21T08:46:25;6.40;;;1.48;;
31368;SDS011;18004;48.416;10.066;2024-02-21T08:48:52;2.10;;;1.33;;
31368;SDS011;18004;48.416;10.066;2024-02-21T08:51:20;10.02;;;1.92;;
31368;SDS011;18004;48.416;10.066;2024-02-21T08:53:46;6.30;;;1.67;;
31368;SDS011;18004;48.416;10.066;2024-02-21T08:56:13;3.97;;;1.30;;
31368;SDS011;18004;48.416;10.066;2024-02-21T08:58:39;4.38;;;1.23;;
31368;SDS011;18004;48.416;10.066;2024-02-21T09:01:05;2.58;;;1.45;;
31368;SDS011;18004;48.416;10.066;2024-02-21T09:03:36;3.33;;;1.48;;
31368;SDS011;18004;48.416;10.066;2024-02-21T09:06:02;5.93;;;1.55;;
31368;SDS011;18004;48.416;10.066;2024-02-21T09:08:32;2.78;;;1.30;;
31368;SDS011;18004;48.416;10.066;2024-02-21T09:10:59;1.38;;;1.20;;
31368;SDS011;18004;48.416;10.066;2024-02-21T09:13:25;1.88;;;1.25;;
31368;SDS011;18004;48.416;10.066;2024-02-21T09:15:51;2.70;;;1.30;;
31368;SDS011;18004;48.416;10.066;2024-02-21T09:18:17;3.58;;;1.23;;
31368;SDS011;18004;48.416;10.066;2024-02-21T09:20:42;3.10;;;1.58;;
31368;SDS011;18004;48.416;10.066;2024-02-21T09:23:09;3.38;;;1.60;;
31368;SDS011;18004;48.416;10.066;2024-02-21T09:25:34;7.25;;;1.48;;
31368;SDS011;18004;48.416;10.066;2024-02-21T09:28:03;4.63;;;1.33;;
31368;SDS011;18004;48.416;10.066;2024-02-21T09:30:31;5.43;;;2.25;;
31368;SDS011;18004;48.416;10.066;2024-02-21T09:32:57;2.22;;;1.60;;
31368;SDS011;18004;48.416;10.066;2024-02-21T09:35:27;4.32;;;2.20;;
31368;SDS011;18004;48.416;10.066;2024-02-21T09:37:53;6.25;;;2.03;;
31368;SDS011;18004;48.416;10.066;2024-02-21T09:40:20;8.60;;;2.35;;
31368;SDS011;18004;48.416;10.066;2024-02-21T09:42:46;9.13;;;1.33;;
31368;SDS011;18004;48.416;10.066;2024-02-21T09:50:36;5.05;;;1.42;;
31368;SDS011;18004;48.416;10.066;2024-02-21T09:53:06;2.42;;;1.10;;
31368;SDS011;18004;48.416;10.066;2024-02-21T09:55:35;2.88;;;1.48;;
31368;SDS011;18004;48.416;10.066;2024-02-21T09:58:05;6.00;;;1.25;;
31368;SDS011;18004;48.416;10.066;2024-02-21T10:00:31;5.57;;;1.13;;
31368;SDS011;18004;48.416;10.066;2024-02-21T10:02:57;3.45;;;1.35;;
31368;SDS011;18004;48.416;10.066;2024-02-21T10:05:24;5.00;;;0.88;;
31368;SDS011;18004;48.416;10.066;2024-02-21T10:07:51;2.40;;;1.10;;
31368;SDS011;18004;48.416;10.066;2024-02-21T10:10:17;2.42;;;1.38;;
31368;SDS011;18004;48.416;10.066;2024-02-21T10:12:49;9.70;;;1.40;;
31368;SDS011;18004;48.416;10.066;2024-02-21T10:15:19;2.60;;;1.15;;
31368;SDS011;18004;48.416;10.066;2024-02-21T10:17:47;8.10;;;2.83;;
31368;SDS011;18004;48.416;10.066;2024-02-21T10:20:13;2.03;;;1.50;;
31368;SDS011;18004;48.416;10.066;2024-02-21T10:22:40;6.28;;;2.13;;
31368;SDS011;18004;48.416;10.066;2024-02-21T10:25:09;5.97;;;1.50;;
31368;SDS011;18004;48.416;10.066;2024-02-21T10:27:38;2.58;;;1.75;;
31368;SDS011;18004;48.416;10.066;2024-02-21T10:30:05;2.60;;;1.35;;
31368;SDS011;18004;48.416;10.066;2024-02-21T10:32:48;8.70;;;1.35;;
31368;SDS011;18004;48.416;10.066;2024-02-21T10:35:31;3.13;;;1.05;;
31368;SDS011;18004;48.416;10.066;2024-02-21T10:37:58;4.85;;;2.03;;
31368;SDS011;18004;48.416;10.066;2024-02-21T10:40:24;4.57;;;1.88;;
31368;SDS011;18004;48.416;10.066;2024-02-21T10:43:02;4.43;;;1.35;;
31368;SDS011;18004;48.416;10.066;2024-02-21T10:45:32;6.35;;;1.35;;
31368;SDS011;18004;48.416;10.066;2024-02-21T10:48:08;4.63;;;1.65;;
31368;SDS011;18004;48.416;10.066;2024-02-21T10:50:43;7.32;;;2.50;;
31368;SDS011;18004;48.416;10.066;2024-02-21T10:53:20;1.33;;;0.93;;
31368;SDS011;18004;48.416;10.066;2024-02-21T10:58:45;2.58;;;1.42;;
31368;SDS011;18004;48.416;10.066;2024-02-21T11:01:12;7.97;;;1.52;;
31368;SDS011;18004;48.416;10.066;2024-02-21T11:03:41;2.67;;;1.02;;
31368;SDS011;18004;48.416;10.066;2024-02-21T11:06:09;4.60;;;2.13;;
31368;SDS011;18004;48.416;10.066;2024-02-21T11:08:37;2.47;;;1.63;;
31368;SDS011;18004;48.416;10.066;2024-02-21T11:11:04;4.93;;;1.88;;
31368;SDS011;18004;48.416;10.066;2024-02-21T11:13:30;4.40;;;2.22;;
31368;SDS011;18004;48.416;10.066;2024-02-21T11:16:10;3.53;;;1.73;;
31368;SDS011;18004;48.416;10.066;2024-02-21T11:18:37;3.78;;;1.70;;
31368;SDS011;18004;48.416;10.066;2024-02-21T11:21:03;2.33;;;1.67;;
31368;SDS011;18004;48.416;10.066;2024-02-21T11:23:32;3.20;;;1.02;;
31368;SDS011;18004;48.416;10.066;2024-02-21T11:26:05;2.17;;;1.17;;
31368;SDS011;18004;48.416;10.066;2024-02-21T11:28:34;2.53;;;0.80;;
31368;SDS011;18004;48.416;10.066;2024-02-21T11:31:11;2.22;;;0.98;;
31368;SDS011;18004;48.416;10.066;2024-02-21T11:33:41;1.92;;;1.10;;
31368;SDS011;18004;48.416;10.066;2024-02-21T11:36:11;3.42;;;1.20;;
31368;SDS011;18004;48.416;10.066;2024-02-21T11:38:51;1.90;;;1.00;;
31368;SDS011;18004;48.416;10.066;2024-02-21T11:41:20;2.95;;;1.42;;
31368;SDS011;18004;48.416;10.066;2024-02-21T11:43:48;4.03;;;1.88;;
31368;SDS011;18004;48.416;10.066;2024-02-21T11:46:15;5.13;;;1.85;;
31368;SDS011;18004;48.416;10.066;2024-02-21T11:48:41;10.65;;;2.78;;
31368;SDS011;18004;48.416;10.066;2024-02-21T11:51:19;4.57;;;1.25;;
31368;SDS011;18004;48.416;10.066;2024-02-21T11:53:46;3.17;;;0.80;;
31368;SDS011;18004;48.416;10.066;2024-02-21T11:56:13;2.03;;;0.80;;
31368;SDS011;18004;48.416;10.066;2024-02-21T11:58:39;5.78;;;0.90;;
31368;SDS011;18004;48.416;10.066;2024-02-21T12:01:05;1.83;;;0.98;;
31368;SDS011;18004;48.416;10.066;2024-02-21T12:03:32;2.40;;;1.00;;
31368;SDS011;18004;48.416;10.066;2024-02-21T12:06:01;3.50;;;1.70;;
31368;SDS011;18004;48.416;10.066;2024-02-21T12:08:40;1.80;;;0.90;;
31368;SDS011;18004;48.416;10.066;2024-02-21T12:11:20;1.85;;;0.80;;
31368;SDS011;18004;48.416;10.066;2024-02-21T12:13:58;5.05;;;1.20;;
31368;SDS011;18004;48.416;10.066;2024-02-21T12:16:27;1.92;;;1.10;;
31368;SDS011;18004;48.416;10.066;2024-02-21T12:18:54;5.45;;;0.90;;
31368;SDS011;18004;48.416;10.066;2024-02-21T12:21:23;1.85;;;0.80;;
31368;SDS011;18004;48.416;10.066;2024-02-21T12:23:55;1.33;;;0.93;;
31368;SDS011;18004;48.416;10.066;2024-02-21T12:26:21;3.72;;;1.13;;
31368;SDS011;18004;48.416;10.066;2024-02-21T12:28:47;2.38;;;1.13;;
31368;SDS011;18004;48.416;10.066;2024-02-21T12:31:13;2.53;;;1.45;;
31368;SDS011;18004;48.416;10.066;2024-02-21T12:33:41;3.28;;;1.27;;
31368;SDS011;18004;48.416;10.066;2024-02-21T12:36:08;6.15;;;1.02;;
31368;SDS011;18004;48.416;10.066;2024-02-21T12:38:34;4.50;;;1.75;;
31368;SDS011;18004;48.416;10.066;2024-02-21T12:41:00;5.60;;;2.42;;
31368;SDS011;18004;48.416;10.066;2024-02-21T12:43:26;7.50;;;2.67;;
31368;SDS011;18004;48.416;10.066;2024-02-21T12:45:52;6.60;;;2.40;;
31368;SDS011;18004;48.416;10.066;2024-02-21T12:48:18;5.75;;;1.88;;
31368;SDS011;18004;48.416;10.066;2024-02-21T12:50:50;6.63;;;1.33;;
31368;SDS011;18004;48.416;10.066;2024-02-21T12:53:17;2.33;;;0.77;;
31368;SDS011;18004;48.416;10.066;2024-02-21T12:55:46;6.43;;;1.08;;
31368;SDS011;18004;48.416;10.066;2024-02-21T12:58:13;2.33;;;0.50;;
31368;SDS011;18004;48.416;10.066;2024-02-21T13:00:39;2.42;;;0.98;;
31368;SDS011;18004;48.416;10.066;2024-02-21T13:03:06;3.70;;;0.63;;
31368;SDS011;18004;48.416;10.066;2024-02-21T13:05:31;2.78;;;0.68;;
31368;SDS011;18004;48.416;10.066;2024-02-21T13:08:00;3.58;;;0.90;;
31368;SDS011;18004;48.416;10.066;2024-02-21T13:10:25;0.98;;;0.68;;
31368;SDS011;18004;48.416;10.066;2024-02-21T13:12:51;3.38;;;0.80;;
31368;SDS011;18004;48.416;10.066;2024-02-21T13:15:17;6.38;;;0.90;;
31368;SDS011;18004;48.416;10.066;2024-02-21T13:17:43;0.93;;;0.70;;
31368;SDS011;18004;48.416;10.066;2024-02-21T13:20:10;5.35;;;0.60;;
31368;SDS011;18004;48.416;10.066;2024-02-21T13:22:36;1.63;;;1.10;;
31368;SDS011;18004;48.416;10.066;2024-02-21T13:25:02;0.68;;;0.55;;
31368;SDS011;18004;48.416;10.066;2024-02-21T13:27:28;0.73;;;0.45;;
31368;SDS011;18004;48.416;10.066;2024-02-21T13:29:54;0.25;;;0.20;;
31368;SDS011;18004;48.416;10.066;2024-02-21T13:32:20;0.45;;;0.40;;
31368;SDS011;18004;48.416;10.066;2024-02-21T13:34:46;2.25;;;0.68;;
31368;SDS011;18004;48.416;10.066;2024-02-21T13:37:12;0.50;;;0.40;;
31368;SDS011;18004;48.416;10.066;2024-02-21T13:39:38;1.70;;;0.52;;
31368;SDS011;18004;48.416;10.066;2024-02-21T13:42:05;1.27;;;0.60;;
31368;SDS011;18004;48.416;10.066;2024-02-21T13:44:31;1.95;;;0.68;;
31368;SDS011;18004;48.416;10.066;2024-02-21T13:46:57;3.25;;;1.00;;
31368;SDS011;18004;48.416;10.066;2024-02-21T13:49:23;1.40;;;0.47;;
31368;SDS011;18004;48.416;10.066;2024-02-21T13:51:49;0.82;;;0.60;;
31368;SDS011;18004;48.416;10.066;2024-02-21T13:54:14;2.35;;;0.65;;
31368;SDS011;18004;48.416;10.066;2024-02-21T13:56:44;2.17;;;1.00;;
31368;SDS011;18004;48.416;10.066;2024-02-21T13:59:11;8.07;;;1.75;;
31368;SDS011;18004;48.416;10.066;2024-02-21T14:01:38;4.25;;;0.95;;
31368;SDS011;18004;48.416;10.066;2024-02-21T14:04:04;5.43;;;0.80;;
31368;SDS011;18004;48.416;10.066;2024-02-21T14:06:30;0.30;;;0.30;;
31368;SDS011;18004;48.416;10.066;2024-02-21T14:08:56;2.05;;;0.77;;
31368;SDS011;18004;48.416;10.066;2024-02-21T14:11:22;4.57;;;1.17;;
31368;SDS011;18004;48.416;10.066;2024-02-21T14:13:48;2.60;;;0.95;;
31368;SDS011;18004;48.416;10.066;2024-02-21T14:16:14;2.78;;;1.33;;
31368;SDS011;18004;48.416;10.066;2024-02-21T14:18:40;2.08;;;1.10;;
31368;SDS011;18004;48.416;10.066;2024-02-21T14:21:07;1.35;;;0.57;;
31368;SDS011;18004;48.416;10.066;2024-02-21T14:23:36;0.82;;;0.50;;
31368;SDS011;18004;48.416;10.066;2024-02-21T14:26:02;1.35;;;0.70;;
31368;SDS011;18004;48.416;10.066;2024-02-21T14:28:29;3.03;;;0.77;;
31368;SDS011;18004;48.416;10.066;2024-02-21T14:31:02;2.17;;;0.60;;
31368;SDS011;18004;48.416;10.066;2024-02-21T14:33:30;6.90;;;1.40;;
31368;SDS011;18004;48.416;10.066;2024-02-21T14:35:59;4.10;;;1.48;;
31368;SDS011;18004;48.416;10.066;2024-02-21T14:38:25;6.05;;;1.88;;